createdAt,value
2017-12-03T00:01:15.969Z,32.47
2017-12-03T00:03:43.675Z,25.65
2017-12-03T00:06:11.330Z,28.17
2017-12-03T00:08:39.818Z,27.20
2017-12-03T00:11:07.450Z,26.20
2017-12-03T00:13:35.079Z,27.55
2017-12-03T00:16:03.503Z,31.33
2017-12-03T00:18:31.136Z,40.20
2017-12-03T00:20:58.862Z,33.53
2017-12-03T00:23:26.492Z,30.30
2017-12-03T00:25:54.119Z,31.40
2017-12-03T00:28:21.802Z,33.33
2017-12-03T00:30:49.617Z,27.30
2017-12-03T00:33:17.285Z,35.58
2017-12-03T00:35:45.676Z,28.65
2017-12-03T00:38:13.309Z,39.22
2017-12-03T00:40:40.964Z,36.97
2017-12-03T00:43:08.705Z,42.78
2017-12-03T00:45:36.381Z,46.88
2017-12-03T00:48:04.016Z,48.30
2017-12-03T00:50:31.656Z,42.35
2017-12-03T00:52:59.489Z,33.28
2017-12-03T00:55:27.890Z,42.62
2017-12-03T00:57:55.555Z,36.97
2017-12-03T01:00:23.205Z,36.10
2017-12-03T01:02:50.836Z,42.10
2017-12-03T01:05:21.282Z,45.03
2017-12-03T01:07:48.904Z,49.15
2017-12-03T01:10:16.563Z,42.03
2017-12-03T01:12:44.186Z,38.83
2017-12-03T01:15:11.810Z,39.45
2017-12-03T01:17:39.551Z,35.20
2017-12-03T01:20:07.182Z,33.28
2017-12-03T01:22:34.864Z,39.50
2017-12-03T01:25:04.209Z,37.70
2017-12-03T01:27:32.606Z,37.97
2017-12-03T01:30:00.269Z,33.08
2017-12-03T01:32:28.790Z,32.50
2017-12-03T01:34:56.455Z,34.15
2017-12-03T01:37:24.081Z,34.47
2017-12-03T01:39:52.475Z,32.13
2017-12-03T01:42:20.153Z,34.78
2017-12-03T01:44:48.790Z,35.65
2017-12-03T01:47:16.453Z,35.78
2017-12-03T01:49:44.076Z,33.97
2017-12-03T01:52:11.704Z,33.78
2017-12-03T01:54:40.133Z,33.28
2017-12-03T01:57:07.863Z,39.70
2017-12-03T01:59:35.538Z,39.20
2017-12-03T02:02:03.174Z,35.75
2017-12-03T02:04:30.806Z,44.30
2017-12-03T02:06:58.622Z,40.83
2017-12-03T02:09:26.241Z,41.40
2017-12-03T02:11:53.900Z,33.90
2017-12-03T02:14:22.363Z,36.13
2017-12-03T02:16:50.750Z,43.35
2017-12-03T02:19:18.439Z,35.60
2017-12-03T02:21:46.089Z,37.67
2017-12-03T02:24:13.745Z,43.00
2017-12-03T02:26:41.396Z,43.33
2017-12-03T02:29:09.021Z,50.88
2017-12-03T02:31:36.691Z,56.92
2017-12-03T02:34:04.318Z,47.78
2017-12-03T02:36:32.000Z,48.80
2017-12-03T02:39:00.396Z,42.40
2017-12-03T02:41:28.065Z,38.45
2017-12-03T02:43:55.756Z,41.95
2017-12-03T02:46:23.391Z,37.47
2017-12-03T02:48:51.062Z,42.70
2017-12-03T02:51:19.476Z,46.08
2017-12-03T02:53:47.101Z,38.85
2017-12-03T02:56:14.774Z,43.80
2017-12-03T02:58:42.400Z,38.55
2017-12-03T03:01:10.062Z,36.92
2017-12-03T03:03:37.745Z,43.50
2017-12-03T03:06:05.423Z,36.72
2017-12-03T03:08:33.094Z,51.85
2017-12-03T03:11:00.719Z,47.58
2017-12-03T03:13:28.423Z,49.05
2017-12-03T03:15:56.082Z,35.10
2017-12-03T03:18:24.480Z,34.92
2017-12-03T03:20:52.145Z,36.30
2017-12-03T03:23:19.806Z,45.65
2017-12-03T03:25:47.481Z,37.10
2017-12-03T03:28:15.110Z,41.83
2017-12-03T03:30:42.755Z,38.25
2017-12-03T03:33:10.422Z,40.47
2017-12-03T03:35:38.050Z,35.47
2017-12-03T03:38:05.714Z,33.60
2017-12-03T03:40:35.038Z,30.50
2017-12-03T03:43:02.693Z,30.40
2017-12-03T03:45:30.361Z,26.37
2017-12-03T03:47:58.273Z,28.45
2017-12-03T03:50:25.926Z,30.73
2017-12-03T03:52:53.553Z,29.60
2017-12-03T03:55:21.262Z,27.77
2017-12-03T03:57:48.934Z,30.98
2017-12-03T04:00:16.561Z,32.20
2017-12-03T04:02:44.212Z,27.00
2017-12-03T04:05:11.842Z,30.67
2017-12-03T04:07:39.598Z,28.60
2017-12-03T04:10:07.254Z,26.85
2017-12-03T04:12:34.926Z,27.10
2017-12-03T04:15:03.342Z,29.35
2017-12-03T04:17:30.974Z,23.45
2017-12-03T04:19:58.830Z,22.83
2017-12-03T04:22:26.727Z,22.17
2017-12-03T04:24:54.358Z,25.35
2017-12-03T04:27:22.020Z,28.00
2017-12-03T04:29:49.791Z,23.17
2017-12-03T04:32:17.424Z,27.35
2017-12-03T04:34:45.080Z,27.27
2017-12-03T04:37:12.733Z,25.80
2017-12-03T04:39:41.160Z,27.05
2017-12-03T04:42:08.866Z,27.00
2017-12-03T04:44:36.493Z,26.33
2017-12-03T04:47:04.164Z,25.83
2017-12-03T04:49:31.797Z,24.75
2017-12-03T04:51:59.537Z,22.33
2017-12-03T04:54:27.934Z,24.17
2017-12-03T04:56:55.555Z,26.10
2017-12-03T04:59:23.218Z,28.83
2017-12-03T05:01:50.866Z,27.80
2017-12-03T05:04:18.708Z,23.85
2017-12-03T05:06:46.341Z,23.55
2017-12-03T05:09:13.970Z,28.15
2017-12-03T05:11:41.686Z,26.58
2017-12-03T05:14:09.403Z,26.92
2017-12-03T05:16:37.065Z,23.20
2017-12-03T05:19:04.696Z,25.95
2017-12-03T05:21:32.329Z,24.10
2017-12-03T05:24:00.006Z,27.30
2017-12-03T05:26:27.702Z,26.87
2017-12-03T05:28:55.505Z,26.92
2017-12-03T05:31:23.127Z,24.70
2017-12-03T05:33:50.761Z,25.42
2017-12-03T05:36:18.466Z,27.67
2017-12-03T05:38:46.108Z,25.12
2017-12-03T05:41:13.764Z,24.87
2017-12-03T05:43:41.394Z,24.33
2017-12-03T05:46:09.030Z,22.13
2017-12-03T05:48:36.690Z,24.02
2017-12-03T05:51:04.340Z,26.27
2017-12-03T05:53:32.004Z,24.70
2017-12-03T05:55:59.717Z,22.62
2017-12-03T05:58:27.338Z,23.12
2017-12-03T06:00:54.994Z,21.25
2017-12-03T06:03:22.638Z,21.50
2017-12-03T06:05:50.303Z,21.70
2017-12-03T06:08:18.118Z,20.60
2017-12-03T06:10:45.767Z,20.60
2017-12-03T06:13:13.425Z,22.15
2017-12-03T06:15:41.040Z,25.48
2017-12-03T06:18:09.657Z,28.15
2017-12-03T06:20:37.291Z,23.98
2017-12-03T06:23:04.926Z,25.67
2017-12-03T06:25:32.580Z,22.45
2017-12-03T06:28:00.210Z,24.90
2017-12-03T06:30:27.898Z,26.20
2017-12-03T06:32:55.533Z,23.87
2017-12-03T06:35:23.204Z,25.05
2017-12-03T06:37:50.866Z,25.17
2017-12-03T06:40:18.741Z,21.30
2017-12-03T06:42:47.194Z,20.35
2017-12-03T06:45:14.821Z,23.55
2017-12-03T06:47:42.439Z,20.98
2017-12-03T06:50:10.093Z,21.33
2017-12-03T06:52:37.756Z,22.23
2017-12-03T06:55:05.482Z,23.90
2017-12-03T06:57:33.111Z,30.10
2017-12-03T07:00:00.738Z,31.15
2017-12-03T07:02:29.305Z,28.35
2017-12-03T07:04:56.959Z,26.90
2017-12-03T07:07:24.605Z,30.12
2017-12-03T07:09:53.013Z,27.15
2017-12-03T07:12:20.646Z,23.67
2017-12-03T07:14:48.410Z,22.87
2017-12-03T07:17:16.051Z,24.65
2017-12-03T07:19:43.731Z,24.17
2017-12-03T07:22:11.371Z,24.92
2017-12-03T07:24:39.015Z,25.12
2017-12-03T07:27:06.687Z,25.10
2017-12-03T07:29:35.078Z,26.70
2017-12-03T07:32:02.739Z,24.45
2017-12-03T07:34:30.375Z,22.25
2017-12-03T07:36:58.018Z,24.60
2017-12-03T07:39:25.674Z,25.45
2017-12-03T07:41:53.316Z,24.05
2017-12-03T07:44:20.982Z,22.15
2017-12-03T07:46:48.790Z,22.25
2017-12-03T07:49:17.256Z,21.67
2017-12-03T07:51:45.674Z,21.50
2017-12-03T07:54:13.347Z,26.60
2017-12-03T07:56:41.017Z,23.73
2017-12-03T07:59:08.767Z,24.40
2017-12-03T08:01:36.419Z,21.30
2017-12-03T08:04:04.459Z,21.48
2017-12-03T08:06:32.094Z,19.77
2017-12-03T08:08:59.802Z,22.52
2017-12-03T08:11:27.438Z,19.42
2017-12-03T08:13:55.074Z,22.20
2017-12-03T08:16:22.741Z,20.62
2017-12-03T08:18:50.399Z,22.40
2017-12-03T08:21:18.327Z,20.77
2017-12-03T08:23:45.955Z,20.40
2017-12-03T08:26:13.586Z,20.42
2017-12-03T08:28:41.243Z,18.80
2017-12-03T08:31:08.870Z,18.23
2017-12-03T08:33:36.525Z,17.90
2017-12-03T08:36:04.916Z,16.62
2017-12-03T08:38:32.541Z,19.10
2017-12-03T08:41:00.258Z,15.75
2017-12-03T08:43:27.922Z,15.98
2017-12-03T08:45:56.336Z,21.67
2017-12-03T08:48:23.954Z,18.95
2017-12-03T08:50:51.572Z,22.52
2017-12-03T08:53:19.345Z,15.65
2017-12-03T08:55:47.775Z,17.62
2017-12-03T08:58:15.517Z,16.05
2017-12-03T09:00:43.146Z,15.95
2017-12-03T09:03:10.766Z,16.25
2017-12-03T09:05:38.427Z,15.95
2017-12-03T09:08:06.095Z,16.27
2017-12-03T09:10:33.746Z,14.98
2017-12-03T09:13:01.375Z,18.25
2017-12-03T09:15:29.001Z,16.33
2017-12-03T09:17:56.665Z,14.32
2017-12-03T09:20:24.285Z,14.80
2017-12-03T09:22:52.250Z,14.70
2017-12-03T09:25:19.881Z,15.23
2017-12-03T09:27:47.516Z,14.57
2017-12-03T09:30:15.947Z,12.50
2017-12-03T09:32:43.570Z,16.23
2017-12-03T09:35:11.227Z,13.57
2017-12-03T09:37:38.862Z,14.98
2017-12-03T09:40:06.481Z,14.98
2017-12-03T09:42:34.124Z,13.95
2017-12-03T09:45:01.773Z,13.75
2017-12-03T09:47:29.454Z,12.48
2017-12-03T09:49:57.123Z,14.40
2017-12-03T09:52:24.778Z,13.55
2017-12-03T09:54:52.431Z,12.23
2017-12-03T09:57:20.057Z,12.60
2017-12-03T09:59:47.793Z,11.68
2017-12-03T10:02:15.529Z,13.93
2017-12-03T10:04:43.150Z,12.43
2017-12-03T10:07:10.778Z,11.65
2017-12-03T10:09:38.694Z,11.70
2017-12-03T10:12:06.310Z,12.52
2017-12-03T10:14:33.965Z,11.20
2017-12-03T10:17:01.588Z,12.23
2017-12-03T10:19:30.480Z,12.07
2017-12-03T10:21:58.366Z,12.35
2017-12-03T10:24:26.012Z,12.13
2017-12-03T10:26:53.692Z,11.05
2017-12-03T10:29:22.080Z,13.05
2017-12-03T10:31:51.417Z,13.48
2017-12-03T10:34:19.066Z,11.95
2017-12-03T10:36:46.690Z,12.35
2017-12-03T10:39:14.346Z,12.90
2017-12-03T10:41:41.970Z,12.98
2017-12-03T10:44:09.788Z,13.13
2017-12-03T10:46:37.434Z,12.55
2017-12-03T10:49:05.540Z,13.75
2017-12-03T10:51:33.194Z,14.87
2017-12-03T10:54:00.812Z,15.18
2017-12-03T10:56:28.679Z,13.38
2017-12-03T10:58:56.338Z,13.00
2017-12-03T11:01:23.962Z,12.90
2017-12-03T11:03:51.628Z,13.82
2017-12-03T11:06:19.267Z,13.77
2017-12-03T11:08:46.902Z,12.75
2017-12-03T11:11:14.575Z,13.95
2017-12-03T11:13:42.203Z,13.77
2017-12-03T11:16:10.123Z,12.88
2017-12-03T11:18:37.792Z,13.93
2017-12-03T11:21:05.458Z,14.65
2017-12-03T11:23:33.115Z,12.80
2017-12-03T11:26:00.745Z,12.85
2017-12-03T11:28:28.574Z,14.85
2017-12-03T11:30:56.198Z,13.52
2017-12-03T11:33:23.822Z,13.25
2017-12-03T11:35:51.473Z,11.77
2017-12-03T11:38:19.099Z,11.63
2017-12-03T11:40:46.752Z,10.82
2017-12-03T11:43:14.373Z,11.77
2017-12-03T11:45:41.988Z,13.32
2017-12-03T11:48:09.825Z,12.52
2017-12-03T11:50:37.459Z,11.52
2017-12-03T11:53:05.110Z,11.05
2017-12-03T11:55:33.493Z,10.00
2017-12-03T11:58:01.911Z,10.23
2017-12-03T12:00:29.546Z,9.40
2017-12-03T12:02:57.159Z,9.50
2017-12-03T12:05:24.797Z,10.60
2017-12-03T12:07:52.426Z,11.00
2017-12-03T12:10:20.833Z,10.60
2017-12-03T12:12:48.550Z,10.82
2017-12-03T12:15:16.175Z,10.68
2017-12-03T12:17:43.822Z,10.57
2017-12-03T12:20:11.434Z,10.60
2017-12-03T12:22:39.051Z,9.77
2017-12-03T12:25:06.698Z,10.02
2017-12-03T12:27:34.326Z,10.93
2017-12-03T12:30:01.978Z,12.45
2017-12-03T12:32:29.589Z,10.38
2017-12-03T12:34:57.202Z,9.80
2017-12-03T12:37:25.179Z,13.65
2017-12-03T12:39:52.811Z,10.90
2017-12-03T12:42:20.489Z,11.77
2017-12-03T12:44:48.213Z,11.23
2017-12-03T12:47:15.842Z,12.13
2017-12-03T12:49:43.495Z,10.30
2017-12-03T12:52:11.106Z,9.68
2017-12-03T12:54:38.821Z,10.63
2017-12-03T12:57:06.465Z,12.13
2017-12-03T12:59:34.084Z,12.80
2017-12-03T13:02:01.733Z,11.77
2017-12-03T13:04:29.352Z,11.35
2017-12-03T13:06:57.003Z,10.63
2017-12-03T13:09:24.633Z,11.43
2017-12-03T13:11:52.250Z,12.27
2017-12-03T13:14:20.674Z,12.13
2017-12-03T13:16:48.441Z,11.77
2017-12-03T13:19:16.125Z,11.90
2017-12-03T13:21:43.782Z,13.93
2017-12-03T13:24:11.417Z,13.70
2017-12-03T13:26:40.023Z,12.73
2017-12-03T13:29:07.701Z,12.80
2017-12-03T13:31:35.478Z,14.32
2017-12-03T13:34:03.861Z,12.40
2017-12-03T13:36:31.487Z,12.07
2017-12-03T13:38:59.975Z,14.65
2017-12-03T13:41:27.626Z,13.38
2017-12-03T13:43:55.341Z,15.00
2017-12-03T13:46:22.953Z,13.65
2017-12-03T13:48:50.582Z,14.87
2017-12-03T13:51:18.339Z,13.93
2017-12-03T13:53:45.968Z,13.65
2017-12-03T13:56:13.641Z,15.18
2017-12-03T13:58:41.267Z,15.10
2017-12-03T14:01:08.892Z,14.32
2017-12-03T14:03:36.568Z,15.63
2017-12-03T14:06:04.205Z,14.73
2017-12-03T14:08:31.868Z,15.45
2017-12-03T14:10:59.497Z,14.13
2017-12-03T14:13:27.153Z,14.68
2017-12-03T14:15:54.803Z,13.23
2017-12-03T14:18:22.425Z,17.30
2017-12-03T14:20:50.084Z,16.17
2017-12-03T14:23:17.736Z,14.23
2017-12-03T14:25:45.475Z,16.60
2017-12-03T14:28:13.132Z,15.90
2017-12-03T14:30:40.757Z,17.05
2017-12-03T14:33:08.434Z,14.68
2017-12-03T14:35:36.066Z,13.55
2017-12-03T14:38:03.974Z,16.45
2017-12-03T14:40:31.622Z,16.08
2017-12-03T14:42:59.243Z,15.68
2017-12-03T14:45:26.936Z,15.40
2017-12-03T14:47:54.558Z,19.10
2017-12-03T14:50:22.179Z,17.55
2017-12-03T14:52:49.951Z,14.57
2017-12-03T14:55:17.877Z,18.55
2017-12-03T14:57:45.550Z,15.65
2017-12-03T15:00:13.192Z,17.37
2017-12-03T15:02:40.813Z,14.75
2017-12-03T15:05:08.801Z,18.37
2017-12-03T15:07:36.421Z,16.42
2017-12-03T15:10:04.070Z,20.12
2017-12-03T15:12:31.714Z,18.85
2017-12-03T15:14:59.369Z,15.55
2017-12-03T15:17:27.010Z,16.73
2017-12-03T15:19:54.630Z,16.42
2017-12-03T15:22:22.285Z,16.42
2017-12-03T15:24:49.911Z,16.92
2017-12-03T15:27:18.991Z,16.00
2017-12-03T15:29:46.659Z,18.33
2017-12-03T15:32:14.274Z,17.52
2017-12-03T15:34:41.937Z,18.05
2017-12-03T15:37:09.791Z,17.25
2017-12-03T15:39:37.416Z,21.17
2017-12-03T15:42:05.062Z,18.60
2017-12-03T15:44:32.723Z,15.43
2017-12-03T15:47:00.377Z,16.02
2017-12-03T15:49:28.002Z,17.75
2017-12-03T15:51:55.623Z,16.23
2017-12-03T15:54:23.266Z,16.30
2017-12-03T15:56:50.900Z,14.60
2017-12-03T15:59:18.717Z,19.35
2017-12-03T16:01:46.332Z,15.00
2017-12-03T16:04:14.742Z,17.27
2017-12-03T16:06:42.397Z,17.62
2017-12-03T16:09:10.011Z,17.70
2017-12-03T16:11:37.847Z,15.95
2017-12-03T16:14:05.478Z,17.33
2017-12-03T16:16:33.862Z,15.02
2017-12-03T16:19:01.522Z,18.83
2017-12-03T16:21:29.370Z,14.55
2017-12-03T16:23:57.083Z,13.73
2017-12-03T16:26:24.783Z,15.90
2017-12-03T16:28:52.458Z,13.73
2017-12-03T16:31:20.131Z,14.23
2017-12-03T16:33:48.745Z,14.38
2017-12-03T16:36:16.397Z,13.40
2017-12-03T16:38:44.047Z,17.45
2017-12-03T16:41:11.682Z,20.17
2017-12-03T16:43:39.438Z,20.62
2017-12-03T16:46:07.088Z,14.43
2017-12-03T16:48:34.770Z,17.70
2017-12-03T16:51:02.394Z,13.60
2017-12-03T16:53:30.024Z,15.68
2017-12-03T16:55:57.719Z,17.90
2017-12-03T16:58:25.426Z,15.55
2017-12-03T17:00:53.085Z,18.95
2017-12-03T17:03:20.734Z,19.98
2017-12-03T17:05:48.462Z,13.23
2017-12-03T17:08:16.130Z,13.18
2017-12-03T17:10:43.796Z,15.63
2017-12-03T17:13:11.456Z,13.43
2017-12-03T17:15:39.904Z,14.40
2017-12-03T17:18:07.558Z,12.77
2017-12-03T17:20:35.986Z,11.68
2017-12-03T17:23:03.615Z,13.40
2017-12-03T17:25:31.396Z,14.43
2017-12-03T17:27:59.213Z,17.08
2017-12-03T17:30:26.846Z,14.98
2017-12-03T17:32:54.786Z,12.27
2017-12-03T17:35:23.169Z,13.82
2017-12-03T17:37:50.835Z,14.87
2017-12-03T17:40:18.670Z,14.18
2017-12-03T17:42:46.282Z,14.15
2017-12-03T17:45:22.151Z,16.05
2017-12-03T17:47:50.067Z,15.50
2017-12-03T17:50:17.910Z,12.18
2017-12-03T17:52:45.549Z,13.27
2017-12-03T17:55:13.173Z,13.30
2017-12-03T17:57:40.841Z,13.43
2017-12-03T18:00:08.470Z,11.95
2017-12-03T18:02:36.135Z,14.43
2017-12-03T18:05:03.768Z,12.25
2017-12-03T18:07:31.402Z,12.50
2017-12-03T18:09:59.062Z,16.08
2017-12-03T18:12:26.709Z,12.82
2017-12-03T18:14:54.388Z,16.55
2017-12-03T18:17:22.027Z,13.32
2017-12-03T18:19:49.773Z,14.38
2017-12-03T18:22:17.533Z,15.20
2017-12-03T18:24:45.193Z,14.93
2017-12-03T18:27:12.872Z,14.50
2017-12-03T18:29:41.342Z,15.45
2017-12-03T18:32:09.079Z,17.40
2017-12-03T18:34:36.805Z,15.45
2017-12-03T18:37:04.478Z,16.17
2017-12-03T18:39:32.218Z,14.65
2017-12-03T18:42:00.113Z,14.00
2017-12-03T18:44:28.058Z,16.70
2017-12-03T18:46:55.723Z,18.55
2017-12-03T18:49:23.355Z,14.73
2017-12-03T18:51:51.094Z,14.60
2017-12-03T18:54:18.847Z,13.73
2017-12-03T18:56:46.555Z,13.05
2017-12-03T18:59:14.235Z,13.73
2017-12-03T19:01:41.871Z,15.65
2017-12-03T19:04:09.624Z,13.38
2017-12-03T19:06:37.357Z,15.88
2017-12-03T19:09:05.029Z,14.40
2017-12-03T19:11:32.720Z,16.80
2017-12-03T19:14:01.114Z,15.93
2017-12-03T19:16:28.994Z,18.58
2017-12-03T19:18:56.625Z,18.15
2017-12-03T19:21:24.251Z,18.00
2017-12-03T19:23:51.905Z,18.52
2017-12-03T19:26:19.732Z,17.65
2017-12-03T19:28:47.458Z,18.77
2017-12-03T19:31:15.090Z,15.85
2017-12-03T19:33:43.410Z,20.10
2017-12-03T19:36:11.086Z,21.50
2017-12-03T19:38:38.746Z,23.58
2017-12-03T19:41:06.446Z,23.62
2017-12-03T19:43:34.070Z,22.83
2017-12-03T19:46:02.485Z,24.87
2017-12-03T19:48:30.136Z,19.10
2017-12-03T19:50:57.770Z,24.10
2017-12-03T19:53:25.426Z,26.40
2017-12-03T19:55:53.116Z,23.52
2017-12-03T19:58:20.761Z,20.30
2017-12-03T20:00:48.707Z,23.75
2017-12-03T20:03:16.460Z,25.05
2017-12-03T20:05:44.136Z,25.55
2017-12-03T20:08:11.811Z,21.73
2017-12-03T20:10:39.496Z,27.77
2017-12-03T20:13:07.147Z,22.92
2017-12-03T20:15:34.805Z,23.95
2017-12-03T20:18:03.242Z,26.40
2017-12-03T20:20:30.906Z,24.27
2017-12-03T20:22:58.579Z,23.33
2017-12-03T20:25:26.265Z,21.62
2017-12-03T20:27:53.890Z,21.60
2017-12-03T20:30:21.544Z,24.00
2017-12-03T20:32:49.339Z,25.33
2017-12-03T20:35:17.001Z,24.65
2017-12-03T20:37:45.435Z,26.00
2017-12-03T20:40:13.100Z,23.70
2017-12-03T20:42:40.753Z,21.02
2017-12-03T20:45:08.808Z,22.67
2017-12-03T20:47:36.470Z,22.48
2017-12-03T20:50:04.882Z,23.23
2017-12-03T20:52:32.510Z,23.62
2017-12-03T20:55:00.181Z,21.42
2017-12-03T20:57:28.481Z,24.17
2017-12-03T20:59:56.152Z,24.17
2017-12-03T21:02:23.792Z,26.45
2017-12-03T21:04:51.517Z,21.10
2017-12-03T21:07:19.349Z,24.48
2017-12-03T21:09:47.002Z,23.35
2017-12-03T21:12:14.703Z,24.63
2017-12-03T21:14:42.329Z,23.23
2017-12-03T21:17:09.995Z,24.83
2017-12-03T21:19:37.943Z,22.87
2017-12-03T21:22:05.585Z,23.40
2017-12-03T21:24:33.249Z,24.00
2017-12-03T21:27:00.971Z,25.17
2017-12-03T21:29:28.809Z,26.95
2017-12-03T21:31:57.223Z,25.50
2017-12-03T21:34:24.863Z,26.67
2017-12-03T21:36:52.539Z,23.38
2017-12-03T21:39:20.162Z,28.60
2017-12-03T21:41:47.842Z,24.10
2017-12-03T21:44:15.485Z,27.13
2017-12-03T21:46:43.099Z,26.45
2017-12-03T21:49:10.994Z,23.62
2017-12-03T21:51:38.710Z,24.33
2017-12-03T21:54:06.427Z,22.40
2017-12-03T21:56:34.250Z,24.23
2017-12-03T21:59:03.201Z,29.20
2017-12-03T22:01:31.897Z,29.90
2017-12-03T22:03:59.627Z,27.45
2017-12-03T22:06:27.285Z,28.20
2017-12-03T22:08:54.925Z,24.30
2017-12-03T22:11:22.616Z,30.45
2017-12-03T22:13:50.276Z,27.62
2017-12-03T22:16:17.954Z,26.70
2017-12-03T22:18:45.610Z,30.25
2017-12-03T22:21:13.258Z,28.38
2017-12-03T22:23:41.851Z,31.98
2017-12-03T22:26:09.611Z,27.40
2017-12-03T22:28:38.726Z,25.85
2017-12-03T22:31:06.404Z,27.77
2017-12-03T22:33:34.826Z,23.35
2017-12-03T22:36:02.482Z,24.25
2017-12-03T22:38:30.148Z,28.67
2017-12-03T22:40:57.885Z,25.85
2017-12-03T22:43:25.556Z,25.77
2017-12-03T22:45:53.363Z,25.70
2017-12-03T22:48:21.006Z,30.02
2017-12-03T22:50:48.854Z,34.47
2017-12-03T22:53:16.514Z,27.08
2017-12-03T22:55:44.186Z,29.35
2017-12-03T22:58:11.819Z,26.15
2017-12-03T23:00:39.618Z,25.15
2017-12-03T23:03:08.340Z,28.10
2017-12-03T23:05:35.951Z,33.08
2017-12-03T23:08:03.682Z,30.98
2017-12-03T23:10:31.328Z,27.48
2017-12-03T23:12:59.838Z,26.48
2017-12-03T23:15:27.548Z,28.87
2017-12-03T23:17:55.983Z,33.00
2017-12-03T23:20:23.752Z,30.58
2017-12-03T23:22:52.176Z,35.83
2017-12-03T23:25:20.010Z,35.08
2017-12-03T23:27:47.762Z,26.87
2017-12-03T23:30:16.228Z,29.63
2017-12-03T23:32:43.906Z,33.63
2017-12-03T23:35:11.541Z,32.15
2017-12-03T23:37:39.412Z,32.78
2017-12-03T23:40:07.109Z,29.37
2017-12-03T23:42:34.729Z,30.12
2017-12-03T23:45:02.424Z,26.65
2017-12-03T23:47:30.049Z,27.37
2017-12-03T23:49:57.744Z,32.42
2017-12-03T23:52:26.170Z,27.25
2017-12-03T23:54:53.886Z,33.00
2017-12-03T23:57:23.549Z,27.13
2017-12-03T23:59:52.128Z,28.48
